University, Nevada
Current Conditions -  °F | °C
As of 7:55 PM on Friday 24 Oct 2014 (Local Time) from KRNO Reporting Station
Scattered Clouds Scattered Clouds  
Wind Chill: 66°   Ceiling: Unl
Heat Index: 66°   Visibility: 10mi
Dew Point: 24°   Wind: 13mph
Humidity: 20%   Direction: 190°S
Pressure: 29.97"   Gusts: NA
Location:  39.5468°N, 119.815°W
Report Text: KRNO 250255Z 19011KT 10SM SCT200 19/M04 A2997 RMK AO2 SLP121 T01891044 53008
Loading
Personal Weather Stations






























Interactive Weather Map
Tropical Storm Tracking
New forecast layout! Learn more

10-Day Weather Forecast

Advertisements
Track Severe Weather on mobile